Time;durP1;ratioP1;P1;durP2;ratioP2;P2;SDS_P1;SDS_P2;PMS_P1;PMS_P2;Temp;Humidity;BMP_temperature;BMP_pressure;BME280_temperature;BME280_humidity;BME280_pressure;Samples;Min_cycle;Max_cycle;Signal;HPM_P1;HPM_P2
2023/05/16 03:16:05;;;;;;;6.50;3.13;;;13.40;96.20;;;;;;6166439;22;89259;-79
2023/05/16 03:18:32;;;;;;;5.57;2.67;;;13.50;96.00;;;;;;6246469;22;87139;-77
2023/05/16 03:20:58;;;;;;;6.30;2.90;;;13.40;95.90;;;;;;6248456;22;89034;-78
2023/05/16 03:23:24;;;;;;;4.72;2.85;;;13.40;96.10;;;;;;6248220;22;88313;-78
2023/05/16 03:25:50;;;;;;;5.82;2.80;;;13.50;96.20;;;;;;6247995;22;87029;-77
2023/05/16 03:28:19;;;;;;;5.15;2.78;;;13.50;95.90;;;;;;6248030;22;86430;-77
2023/05/16 03:30:45;;;;;;;6.05;3.70;;;13.60;95.90;;;;;;6246100;22;87608;-77
2023/05/16 03:33:10;;;;;;;6.30;3.70;;;13.60;95.90;;;;;;6246696;22;87460;-78
2023/05/16 03:35:37;;;;;;;6.00;3.15;;;13.70;96.30;;;;;;6247044;22;88255;-79
2023/05/16 03:38:03;;;;;;;5.25;3.30;;;13.60;96.90;;;;;;6248594;22;87352;-78
2023/05/16 03:40:28;;;;;;;5.85;3.40;;;13.60;97.00;;;;;;6246586;22;87839;-77
2023/05/16 03:42:54;;;;;;;5.10;3.10;;;13.70;97.30;;;;;;6246737;22;87428;-77
2023/05/16 03:45:20;;;;;;;8.48;4.50;;;13.70;97.20;;;;;;6247796;22;87697;-77
2023/05/16 03:47:47;;;;;;;6.55;3.88;;;13.70;97.30;;;;;;6248120;22;87302;-78
2023/05/16 03:50:13;;;;;;;8.65;3.88;;;13.70;97.50;;;;;;6245873;22;88227;-78
2023/05/16 03:52:38;;;;;;;6.90;3.88;;;13.70;97.90;;;;;;6248759;22;88125;-76
2023/05/16 03:55:05;;;;;;;7.78;3.78;;;13.70;98.00;;;;;;6244920;22;87505;-78
2023/05/16 03:57:31;;;;;;;6.25;3.63;;;13.70;97.80;;;;;;6247347;22;87328;-76
2023/05/16 03:59:57;;;;;;;6.00;3.75;;;13.70;97.80;;;;;;6248475;22;89867;-76
2023/05/16 04:02:23;;;;;;;10.25;3.63;;;13.70;97.90;;;;;;6247296;22;88189;-76
2023/05/16 04:04:48;;;;;;;7.18;4.10;;;13.70;97.60;;;;;;6247916;22;87689;-76
2023/05/16 04:07:14;;;;;;;6.47;4.15;;;13.70;97.80;;;;;;6248183;22;87473;-76
2023/05/16 04:09:40;;;;;;;6.32;3.88;;;13.70;98.10;;;;;;6247295;22;87324;-76
2023/05/16 04:12:06;;;;;;;9.05;4.30;;;13.70;98.20;;;;;;6246880;22;87414;-76
2023/05/16 04:14:32;;;;;;;7.97;4.38;;;13.60;98.60;;;;;;6249634;22;86968;-76
2023/05/16 04:16:59;;;;;;;5.93;3.92;;;13.60;99.10;;;;;;6237283;22;86786;-77
2023/05/16 04:19:24;;;;;;;7.43;3.53;;;13.70;99.20;;;;;;6217723;22;88793;-77
2023/05/16 04:21:51;;;;;;;10.60;4.50;;;13.70;99.10;;;;;;6217005;22;87529;-76
2023/05/16 04:24:17;;;;;;;7.05;4.30;;;13.70;99.30;;;;;;6217096;22;88445;-76
2023/05/16 04:26:43;;;;;;;9.30;3.55;;;13.70;99.70;;;;;;6217957;22;87362;-76
2023/05/16 04:29:08;;;;;;;9.43;4.30;;;13.70;99.60;;;;;;6217806;22;88099;-80
2023/05/16 04:31:35;;;;;;;6.82;3.97;;;13.70;99.70;;;;;;6215641;22;88121;-81
2023/05/16 04:34:01;;;;;;;6.78;4.10;;;13.80;99.70;;;;;;6217516;22;87033;-81
2023/05/16 04:36:29;;;;;;;7.72;3.78;;;13.80;99.80;;;;;;6217556;22;87378;-80
2023/05/16 04:38:55;;;;;;;8.70;4.55;;;13.90;99.90;;;;;;6216643;22;88117;-79
2023/05/16 04:41:22;;;;;;;7.57;4.13;;;13.90;99.90;;;;;;6217800;22;87848;-79
2023/05/16 04:43:48;;;;;;;7.50;4.43;;;14.00;99.70;;;;;;6216884;22;86948;-80
2023/05/16 04:46:17;;;;;;;9.80;4.82;;;14.00;99.90;;;;;;6217116;22;87456;-76
2023/05/16 04:48:42;;;;;;;8.15;4.57;;;14.00;99.90;;;;;;6215443;22;88905;-79
2023/05/16 04:51:08;;;;;;;10.05;4.55;;;14.10;99.90;;;;;;6216543;22;89137;-78
2023/05/16 04:53:33;;;;;;;11.15;5.00;;;14.00;99.90;;;;;;6217370;22;87603;-78
2023/05/16 04:55:59;;;;;;;7.95;4.85;;;14.10;99.80;;;;;;6217585;22;87198;-79
2023/05/16 04:58:25;;;;;;;6.95;4.90;;;14.20;99.30;;;;;;6216703;22;87644;-79
2023/05/16 05:00:51;;;;;;;9.73;5.40;;;14.20;98.90;;;;;;6216446;22;87873;-73
2023/05/16 05:03:17;;;;;;;8.65;4.43;;;14.20;99.40;;;;;;6215223;22;87127;-71
2023/05/16 05:05:43;;;;;;;7.32;4.13;;;14.10;99.70;;;;;;6218308;22;86830;-78
2023/05/16 05:08:08;;;;;;;7.55;3.60;;;14.10;99.10;;;;;;6216228;22;88248;-79
2023/05/16 05:10:35;;;;;;;6.35;4.25;;;14.20;98.70;;;;;;6217252;22;87829;-82
2023/05/16 05:13:00;;;;;;;6.63;3.60;;;14.20;98.80;;;;;;6216975;22;88269;-80
2023/05/16 05:15:26;;;;;;;6.22;3.58;;;14.20;98.70;;;;;;6217383;22;87333;-80
2023/05/16 05:17:52;;;;;;;7.63;3.67;;;14.20;98.60;;;;;;6165007;22;1208200;-80
2023/05/16 05:20:18;;;;;;;8.98;4.00;;;14.20;98.80;;;;;;6218872;22;87109;-80
2023/05/16 05:22:43;;;;;;;5.28;3.03;;;14.20;98.70;;;;;;6218477;22;87629;-79
2023/05/16 05:25:09;;;;;;;5.43;3.53;;;14.30;98.40;;;;;;6217889;22;87168;-80
2023/05/16 05:27:35;;;;;;;6.00;3.38;;;14.30;98.60;;;;;;6218832;22;87975;-79
2023/05/16 05:30:02;;;;;;;9.70;3.92;;;14.30;98.30;;;;;;6218693;22;87132;-80
2023/05/16 05:32:28;;;;;;;7.68;4.03;;;14.40;98.10;;;;;;6217117;22;87302;-80
2023/05/16 05:34:54;;;;;;;7.22;3.67;;;14.40;98.20;;;;;;6217932;22;87312;-80
2023/05/16 05:37:19;;;;;;;5.38;3.10;;;14.50;97.80;;;;;;6218125;22;88734;-80
2023/05/16 05:39:45;;;;;;;7.00;3.70;;;14.50;97.60;;;;;;6217115;22;88367;-79
2023/05/16 05:42:11;;;;;;;7.05;3.92;;;14.60;97.80;;;;;;6218629;22;87791;-80
2023/05/16 05:44:37;;;;;;;6.32;3.58;;;14.60;97.90;;;;;;6217687;22;87373;-79
2023/05/16 05:47:06;;;;;;;6.53;3.75;;;14.60;97.20;;;;;;6218705;22;88532;-80
2023/05/16 05:49:33;;;;;;;10.05;3.63;;;14.60;97.10;;;;;;6218545;22;87747;-80
2023/05/16 05:51:59;;;;;;;7.70;3.63;;;14.70;96.80;;;;;;6217586;22;87064;-78
2023/05/16 05:54:24;;;;;;;6.55;3.65;;;14.80;96.50;;;;;;6218550;22;86409;-78
2023/05/16 05:56:50;;;;;;;9.30;4.05;;;14.80;96.40;;;;;;6218219;22;88129;-77
2023/05/16 05:59:16;;;;;;;9.13;4.15;;;14.90;96.30;;;;;;6218480;22;87797;-77
2023/05/16 06:01:43;;;;;;;9.15;4.25;;;14.90;96.30;;;;;;6217082;22;88513;-78
2023/05/16 06:04:09;;;;;;;6.97;3.63;;;15.10;95.50;;;;;;6219546;22;87223;-77
2023/05/16 06:06:35;;;;;;;6.97;3.60;;;15.40;95.30;;;;;;6218663;22;87941;-78
2023/05/16 06:09:00;;;;;;;6.03;3.30;;;15.50;94.50;;;;;;6218075;22;87531;-78
2023/05/16 06:11:26;;;;;;;7.57;3.17;;;15.80;94.10;;;;;;6218509;22;87443;-78
2023/05/16 06:13:52;;;;;;;6.47;3.45;;;15.90;93.30;;;;;;6218634;22;87453;-81
2023/05/16 06:16:17;;;;;;;9.40;3.53;;;16.10;93.30;;;;;;6218145;22;88070;-81
2023/05/16 06:18:43;;;;;;;5.78;3.35;;;16.40;92.80;;;;;;6218835;22;87874;-82
2023/05/16 06:21:09;;;;;;;5.65;2.88;;;16.70;92.10;;;;;;6218610;22;87335;-78
2023/05/16 06:23:35;;;;;;;4.35;2.88;;;16.90;91.70;;;;;;6218920;22;87330;-80
2023/05/16 06:26:02;;;;;;;4.13;2.83;;;17.00;91.70;;;;;;6217638;22;89015;-83
2023/05/16 06:28:28;;;;;;;4.25;2.63;;;16.90;91.00;;;;;;6219205;22;88214;-83
2023/05/16 06:30:54;;;;;;;4.57;2.78;;;16.80;90.60;;;;;;6240984;22;86860;-77
2023/05/16 06:33:20;;;;;;;8.18;2.63;;;16.80;91.30;;;;;;6228207;22;87578;-77
2023/05/16 06:35:47;;;;;;;7.15;3.13;;;16.90;90.80;;;;;;6219734;22;87236;-77
2023/05/16 06:38:14;;;;;;;5.22;2.92;;;17.00;91.00;;;;;;6218870;22;87458;-78
2023/05/16 06:40:39;;;;;;;4.55;2.97;;;17.20;90.30;;;;;;6219214;22;87331;-76
2023/05/16 06:43:05;;;;;;;4.57;2.63;;;17.40;89.20;;;;;;6219939;22;86629;-78
2023/05/16 06:45:31;;;;;;;5.88;2.85;;;18.10;88.60;;;;;;6218048;22;88507;-80
2023/05/16 06:47:57;;;;;;;4.63;2.72;;;19.00;84.70;;;;;;6218264;22;88241;-80
2023/05/16 06:50:22;;;;;;;5.13;2.20;;;19.90;80.90;;;;;;6218262;22;88190;-80
2023/05/16 06:52:48;;;;;;;6.10;2.10;;;20.60;77.40;;;;;;6219083;22;87360;-80
2023/05/16 06:55:14;;;;;;;4.13;2.25;;;21.10;74.40;;;;;;6218082;22;87954;-78
2023/05/16 06:57:40;;;;;;;4.30;2.28;;;21.30;73.50;;;;;;6218404;22;87737;-78
2023/05/16 07:00:07;;;;;;;3.90;2.50;;;21.40;71.50;;;;;;6218358;22;87263;-79
2023/05/16 07:02:32;;;;;;;5.78;2.33;;;20.90;71.00;;;;;;6218795;22;87045;-79
2023/05/16 07:04:58;;;;;;;4.68;2.20;;;20.50;72.50;;;;;;6218108;22;87462;-80
2023/05/16 07:07:24;;;;;;;5.20;2.33;;;20.30;73.10;;;;;;6218757;22;88133;-78
2023/05/16 07:09:49;;;;;;;4.57;2.25;;;20.00;73.50;;;;;;6217373;22;87075;-79
2023/05/16 07:12:15;;;;;;;6.05;2.50;;;20.00;73.90;;;;;;6218485;22;87368;-77
2023/05/16 07:14:42;;;;;;;4.55;2.55;;;20.60;73.50;;;;;;6217345;22;88620;-78
2023/05/16 07:17:08;;;;;;;4.40;2.13;;;21.00;72.30;;;;;;6231098;22;88543;-80
2023/05/16 07:19:34;;;;;;;3.55;2.00;;;20.80;69.20;;;;;;6249543;22;87220;-78
2023/05/16 07:22:00;;;;;;;7.65;2.85;;;20.80;69.80;;;;;;6249352;22;87468;-81
2023/05/16 07:24:25;;;;;;;6.15;3.47;;;20.30;70.40;;;;;;6248954;22;87490;-84
2023/05/16 07:26:51;;;;;;;6.28;4.13;;;19.80;72.00;;;;;;6248885;22;87222;-83
2023/05/16 07:29:17;;;;;;;6.05;3.00;;;19.30;71.90;;;;;;6249592;22;87516;-82
2023/05/16 07:31:43;;;;;;;7.53;3.05;;;18.90;73.60;;;;;;6251187;22;86723;-82
2023/05/16 07:34:10;;;;;;;7.07;3.45;;;18.40;74.70;;;;;;6249708;22;88240;-83
2023/05/16 07:36:36;;;;;;;8.07;3.92;;;17.90;76.60;;;;;;6250028;22;87433;-82
2023/05/16 07:39:01;;;;;;;7.50;4.35;;;17.80;76.10;;;;;;6249769;22;88321;-81
2023/05/16 07:41:31;;;;;;;7.25;3.80;;;17.80;76.70;;;;;;6250626;22;87446;-81
2023/05/16 07:43:56;;;;;;;6.70;4.25;;;17.70;77.50;;;;;;6250267;22;88041;-83
2023/05/16 07:46:22;;;;;;;9.10;4.75;;;17.30;78.50;;;;;;6250822;22;87213;-80
2023/05/16 07:48:48;;;;;;;8.40;4.68;;;17.20;79.50;;;;;;6250495;22;87124;-76
2023/05/16 07:51:14;;;;;;;11.48;5.20;;;17.10;79.10;;;;;;6250430;22;87354;-77
2023/05/16 07:53:40;;;;;;;8.82;5.13;;;17.10;79.50;;;;;;6249649;22;87976;-77
2023/05/16 07:56:06;;;;;;;9.20;5.18;;;17.30;79.70;;;;;;6250602;22;88003;-79
2023/05/16 07:58:32;;;;;;;9.23;5.65;;;17.50;79.10;;;;;;6250632;22;87097;-78
2023/05/16 08:00:58;;;;;;;9.18;5.53;;;17.70;78.70;;;;;;6250201;22;87254;-77
2023/05/16 08:03:24;;;;;;;9.35;5.10;;;18.00;78.00;;;;;;6248912;22;88717;-78
2023/05/16 08:05:50;;;;;;;8.95;5.57;;;18.80;76.60;;;;;;6250170;22;88649;-78
2023/05/16 08:08:16;;;;;;;11.45;6.20;;;19.40;74.70;;;;;;6250586;22;87334;-79
2023/05/16 08:10:42;;;;;;;12.90;6.40;;;19.60;72.80;;;;;;6250163;22;87387;-79
2023/05/16 08:13:08;;;;;;;9.32;5.68;;;19.70;72.70;;;;;;6246071;22;88331;-77
2023/05/16 08:15:34;;;;;;;12.88;5.93;;;19.70;71.60;;;;;;6246268;22;87770;-79
2023/05/16 08:18:00;;;;;;;12.07;6.18;;;19.60;72.30;;;;;;6249297;22;87413;-78
2023/05/16 08:20:26;;;;;;;10.70;6.18;;;19.60;71.60;;;;;;6248314;22;86682;-77
2023/05/16 08:22:51;;;;;;;12.40;6.10;;;19.40;72.90;;;;;;6246329;22;88356;-79
2023/05/16 08:25:18;;;;;;;8.90;5.68;;;19.40;73.30;;;;;;6239403;22;87889;-78
2023/05/16 08:27:52;;;;;;;10.55;6.57;;;19.00;73.60;;;;;;6216634;22;88506;-79
2023/05/16 08:30:24;;;;;;;11.18;6.88;;;18.80;73.30;;;;;;6243512;22;87590;-78
2023/05/16 08:32:49;;;;;;;11.70;6.60;;;18.70;73.30;;;;;;6244499;22;88272;-77
2023/05/16 08:35:15;;;;;;;12.45;6.45;;;18.60;74.90;;;;;;6217352;22;90747;-76
2023/05/16 08:37:40;;;;;;;11.95;6.40;;;18.50;75.30;;;;;;6244954;22;87362;-78
2023/05/16 08:40:09;;;;;;;9.93;6.35;;;18.40;74.60;;;;;;6242632;22;87482;-79
2023/05/16 08:42:36;;;;;;;11.00;5.95;;;18.50;74.20;;;;;;6245899;22;87501;-78
2023/05/16 08:45:02;;;;;;;11.35;5.97;;;18.70;74.50;;;;;;6242865;22;87024;-77
2023/05/16 08:47:30;;;;;;;10.00;5.50;;;19.10;73.40;;;;;;6245006;22;87293;-76
2023/05/16 08:49:57;;;;;;;13.70;5.82;;;19.40;72.60;;;;;;6246396;22;87512;-78
2023/05/16 08:52:30;;;;;;;12.80;6.65;;;19.50;70.30;;;;;;6245332;22;88448;-79
2023/05/16 08:55:00;;;;;;;9.77;6.00;;;19.50;71.50;;;;;;6217365;22;90413;-79
2023/05/16 08:57:27;;;;;;;10.10;5.80;;;19.40;71.90;;;;;;6248933;22;87783;-79
2023/05/16 08:59:53;;;;;;;9.35;6.28;;;19.30;72.30;;;;;;6248721;22;87360;-79
2023/05/16 09:02:21;;;;;;;11.30;5.72;;;19.20;72.50;;;;;;6247042;22;87679;-79
2023/05/16 09:04:48;;;;;;;10.85;6.00;;;19.00;72.60;;;;;;6244559;22;87702;-78
2023/05/16 09:07:14;;;;;;;11.30;6.45;;;18.90;72.60;;;;;;6248434;22;87397;-79
2023/05/16 09:09:41;;;;;;;12.70;6.60;;;18.50;74.40;;;;;;6248525;22;86411;-79
2023/05/16 09:12:07;;;;;;;11.85;6.55;;;18.20;75.20;;;;;;6246261;22;87975;-77
2023/05/16 09:14:34;;;;;;;12.52;7.13;;;18.00;75.50;;;;;;6246136;22;87247;-79
2023/05/16 09:17:05;;;;;;;11.63;5.82;;;17.50;76.70;;;;;;6245248;22;88913;-78
2023/05/16 09:19:42;;;;;;;12.43;6.32;;;17.40;77.60;;;;;;6248489;22;87391;-79
2023/05/16 09:22:12;;;;;;;12.45;6.15;;;17.20;77.50;;;;;;6248389;22;88047;-78
2023/05/16 09:24:43;;;;;;;11.13;6.65;;;17.20;79.40;;;;;;6247951;22;87729;-79
2023/05/16 09:27:09;;;;;;;10.90;6.20;;;17.20;78.60;;;;;;6247637;22;87290;-79
2023/05/16 09:29:35;;;;;;;12.40;6.50;;;17.10;78.30;;;;;;6249154;22;86979;-78
2023/05/16 09:32:14;;;;;;;10.32;6.25;;;17.10;77.50;;;;;;6246371;22;87515;-78
2023/05/16 09:34:48;;;;;;;12.50;6.20;;;17.00;78.00;;;;;;6247005;22;88730;-78
2023/05/16 09:37:14;;;;;;;13.35;7.18;;;17.20;78.60;;;;;;6246059;22;87516;-78
2023/05/16 09:39:51;;;;;;;11.32;6.40;;;17.30;78.60;;;;;;6220398;22;87595;-79
2023/05/16 09:42:19;;;;;;;13.93;6.47;;;17.50;77.40;;;;;;6245984;22;89053;-78
2023/05/16 09:44:50;;;;;;;10.60;6.18;;;17.40;77.00;;;;;;6218664;22;90362;-78
2023/05/16 09:47:20;;;;;;;10.43;5.97;;;17.30;78.00;;;;;;6247118;22;88015;-79
2023/05/16 09:49:51;;;;;;;11.85;6.05;;;17.50;77.80;;;;;;6242817;22;87768;-79
2023/05/16 09:52:17;;;;;;;11.40;6.63;;;17.40;78.40;;;;;;6246728;22;87678;-79
2023/05/16 09:54:45;;;;;;;11.43;6.85;;;17.50;77.90;;;;;;6243609;22;87294;-80
2023/05/16 09:57:11;;;;;;;10.52;5.93;;;17.60;76.40;;;;;;6247208;22;87529;-80
2023/05/16 09:59:37;;;;;;;9.60;6.03;;;17.90;76.90;;;;;;6245363;22;86918;-83
2023/05/16 10:02:06;;;;;;;12.25;6.38;;;18.20;75.40;;;;;;6246398;22;88524;-78
2023/05/16 10:04:33;;;;;;;11.95;6.38;;;18.60;74.30;;;;;;6245296;22;88457;-79
2023/05/16 10:07:04;;;;;;;9.95;5.72;;;18.70;74.10;;;;;;6244852;22;88193;-79
2023/05/16 10:09:33;;;;;;;13.05;5.60;;;18.60;74.80;;;;;;6244768;22;87357;-79
2023/05/16 10:12:05;;;;;;;10.73;6.65;;;18.40;75.30;;;;;;6244157;22;87786;-79
2023/05/16 10:14:36;;;;;;;10.98;6.63;;;18.20;75.30;;;;;;6244391;22;87732;-78
2023/05/16 10:17:05;;;;;;;10.70;6.30;;;17.90;77.10;;;;;;6232039;22;90988;-79
2023/05/16 10:19:35;;;;;;;10.45;6.20;;;17.90;78.30;;;;;;6210375;22;87187;-80
2023/05/16 10:22:03;;;;;;;;;;;18.10;77.40;;;;;;6216881;22;87305;-79
2023/05/16 10:24:53;;;;;;;12.98;6.93;;;18.10;77.40;;;;;;6213399;22;88820;-79
2023/05/16 10:27:20;;;;;;;12.20;6.82;;;18.20;76.90;;;;;;6140946;22;87526;-78
2023/05/16 10:29:46;;;;;;;10.65;7.05;;;18.20;77.40;;;;;;6211475;22;87414;-79
2023/05/16 10:32:12;;;;;;;11.85;6.35;;;18.20;76.90;;;;;;6210677;22;89141;-79
2023/05/16 10:34:39;;;;;;;13.57;6.18;;;18.20;77.90;;;;;;6210475;22;89130;-80
2023/05/16 10:37:06;;;;;;;9.52;6.50;;;18.10;77.70;;;;;;6212707;22;87705;-79
2023/05/16 10:39:32;;;;;;;9.75;6.00;;;18.00;78.30;;;;;;6213226;22;87452;-79
2023/05/16 10:41:58;;;;;;;10.93;6.40;;;17.80;78.40;;;;;;6211541;22;87448;-79
2023/05/16 10:44:25;;;;;;;10.32;6.80;;;17.70;78.80;;;;;;6212262;22;86998;-78
2023/05/16 10:46:50;;;;;;;12.10;7.68;;;17.50;79.70;;;;;;6214009;22;87351;-79
2023/05/16 10:49:24;;;;;;;13.80;6.85;;;17.40;80.40;;;;;;6211872;22;86500;-79
2023/05/16 10:52:14;;;;;;;8.30;4.57;;;17.20;80.30;;;;;;6207719;22;87711;-78
2023/05/16 10:54:52;;;;;;;7.10;4.50;;;16.70;78.50;;;;;;6189095;22;88302;-78
2023/05/16 10:57:22;;;;;;;6.32;3.45;;;16.10;78.60;;;;;;6205737;22;88412;-79
2023/05/16 10:59:49;;;;;;;8.00;4.30;;;15.90;81.30;;;;;;6209849;22;87938;-79
2023/05/16 11:02:28;;;;;;;7.55;3.83;;;16.00;82.50;;;;;;6213839;22;88630;-79
2023/05/16 11:05:00;;;;;;;9.40;3.92;;;16.20;82.40;;;;;;6215604;22;87245;-79
2023/05/16 11:07:33;;;;;;;8.07;4.00;;;16.40;82.40;;;;;;6216752;22;87226;-79
2023/05/16 11:10:08;;;;;;;7.22;4.15;;;16.60;81.60;;;;;;6215205;22;87547;-80
2023/05/16 11:12:46;;;;;;;9.55;5.43;;;16.70;82.80;;;;;;6216426;22;88069;-79
2023/05/16 11:15:19;;;;;;;11.27;6.13;;;16.80;84.80;;;;;;6217158;22;87837;-77
2023/05/16 11:17:45;;;;;;;10.55;5.80;;;17.00;84.80;;;;;;6216571;22;87633;-77
2023/05/16 11:20:31;;;;;;;9.35;5.75;;;17.30;84.80;;;;;;6218523;22;87480;-80
2023/05/16 11:23:18;;;;;;;9.48;5.93;;;17.50;84.60;;;;;;6217294;22;88562;-78
2023/05/16 11:25:53;;;;;;;9.98;5.35;;;17.60;84.10;;;;;;6217681;22;90290;-78
2023/05/16 11:28:19;;;;;;;10.27;6.10;;;17.60;83.80;;;;;;6217361;22;87947;-77
2023/05/16 11:30:51;;;;;;;12.43;5.20;;;17.50;84.40;;;;;;6213205;22;87543;-78
2023/05/16 11:33:18;;;;;;;11.85;6.85;;;17.30;84.60;;;;;;6248575;22;87578;-79
2023/05/16 11:35:59;;;;;;;16.60;8.93;;;17.00;84.90;;;;;;6220987;22;87233;-77
2023/05/16 11:38:24;;;;;;;16.70;9.75;;;16.80;85.60;;;;;;6248545;22;87402;-79
2023/05/16 11:40:50;;;;;;;15.43;9.98;;;16.60;87.40;;;;;;6251109;22;86579;-78
2023/05/16 11:43:19;;;;;;;19.05;10.27;;;16.40;86.10;;;;;;6250472;22;87570;-79
2023/05/16 11:45:45;;;;;;;17.40;10.00;;;16.40;87.90;;;;;;6250921;22;89278;-79
2023/05/16 11:48:11;;;;;;;16.90;10.10;;;16.30;88.00;;;;;;6221990;22;88049;-79
2023/05/16 11:50:37;;;;;;;15.45;9.00;;;16.30;88.60;;;;;;6250753;22;87188;-78
2023/05/16 11:53:03;;;;;;;14.63;9.27;;;16.20;88.10;;;;;;6251285;22;87545;-79
2023/05/16 11:55:29;;;;;;;15.48;9.65;;;16.40;88.60;;;;;;6251919;22;88237;-78
2023/05/16 11:57:58;;;;;;;16.92;10.48;;;16.30;89.80;;;;;;6251681;22;87443;-78
2023/05/16 12:00:26;;;;;;;15.98;10.60;;;16.20;89.70;;;;;;6251269;22;87395;-79
2023/05/16 12:02:53;;;;;;;17.77;10.85;;;16.00;90.00;;;;;;6250189;22;88196;-79
2023/05/16 12:05:25;;;;;;;19.02;11.25;;;15.90;90.50;;;;;;6250792;22;87195;-79
2023/05/16 12:07:54;;;;;;;14.65;9.77;;;15.80;91.00;;;;;;6250394;22;87042;-79
2023/05/16 12:10:20;;;;;;;15.90;9.43;;;15.90;90.60;;;;;;6251418;22;87461;-79
2023/05/16 12:12:51;;;;;;;12.48;8.27;;;16.30;89.80;;;;;;6250395;22;88902;-78
2023/05/16 12:15:18;;;;;;;12.05;7.82;;;16.50;88.50;;;;;;6250858;22;88026;-79
2023/05/16 12:17:44;;;;;;;14.85;7.65;;;16.50;87.50;;;;;;6248831;22;87605;-79
2023/05/16 12:20:13;;;;;;;12.02;7.65;;;16.30;86.80;;;;;;6250194;22;87291;-79
2023/05/16 12:22:40;;;;;;;13.80;8.65;;;16.10;88.60;;;;;;6249126;22;87624;-79
2023/05/16 12:25:26;;;;;;;16.02;10.23;;;15.90;89.60;;;;;;6249364;22;87644;-79
2023/05/16 12:27:56;;;;;;;15.60;9.63;;;15.80;90.00;;;;;;6248945;22;87733;-80
2023/05/16 12:30:23;;;;;;;16.95;10.35;;;15.80;90.00;;;;;;6250199;22;86630;-80
2023/05/16 12:33:11;;;;;;;18.30;10.50;;;15.70;90.20;;;;;;6248700;22;87364;-79
2023/05/16 12:35:39;;;;;;;17.50;9.38;;;15.80;90.40;;;;;;6247622;22;87798;-79
2023/05/16 12:38:09;;;;;;;12.95;8.50;;;15.70;90.70;;;;;;6248898;22;88314;-78
2023/05/16 12:40:40;;;;;;;11.30;7.97;;;15.70;90.70;;;;;;6250076;22;86958;-80
2023/05/16 12:43:18;;;;;;;13.65;8.73;;;15.70;89.50;;;;;;6250232;22;87548;-79
2023/05/16 12:45:51;;;;;;;11.15;7.57;;;15.50;90.10;;;;;;6249232;22;87616;-79
2023/05/16 12:48:17;;;;;;;12.98;7.90;;;15.40;89.30;;;;;;6249581;22;87236;-78
2023/05/16 12:50:47;;;;;;;12.40;8.27;;;15.20;89.30;;;;;;6250157;22;87414;-79
2023/05/16 12:53:13;;;;;;;;;;;15.10;90.00;;;;;;6250247;22;88971;-79
2023/05/16 12:55:40;;;;;;;15.23;8.73;;;15.20;90.50;;;;;;6251886;22;88492;-79
2023/05/16 12:58:06;;;;;;;14.30;9.25;;;15.30;91.10;;;;;;6249770;22;87268;-78
2023/05/16 13:00:32;;;;;;;15.63;9.88;;;15.30;91.20;;;;;;6250524;22;87431;-79
2023/05/16 13:02:57;;;;;;;12.60;8.27;;;15.10;90.70;;;;;;6248848;22;88501;-79
2023/05/16 13:05:23;;;;;;;15.10;10.43;;;15.10;91.50;;;;;;6249152;22;88930;-78
2023/05/16 13:07:53;;;;;;;16.20;10.07;;;15.10;91.50;;;;;;6249249;22;87527;-78
2023/05/16 13:10:18;;;;;;;19.00;11.98;;;15.00;91.50;;;;;;6249153;22;87269;-78
2023/05/16 13:12:44;;;;;;;20.17;9.77;;;14.90;91.70;;;;;;6249029;22;87614;-78
2023/05/16 13:15:10;;;;;;;15.60;9.98;;;14.80;91.90;;;;;;6249730;22;87723;-78
2023/05/16 13:17:42;;;;;;;16.38;9.75;;;14.90;92.20;;;;;;6248832;22;87206;-78
2023/05/16 13:20:11;;;;;;;19.30;12.50;;;14.90;92.30;;;;;;6248031;22;86327;-78
2023/05/16 13:22:37;;;;;;;19.88;11.32;;;15.00;92.50;;;;;;6246420;22;87874;-79
2023/05/16 13:25:04;;;;;;;17.83;10.40;;;15.00;92.20;;;;;;6246795;22;87717;-78
2023/05/16 13:27:31;;;;;;;19.00;11.68;;;15.00;92.50;;;;;;6246506;22;88258;-78
2023/05/16 13:29:57;;;;;;;18.02;11.13;;;15.00;92.80;;;;;;6244812;22;87403;-78
2023/05/16 13:32:23;;;;;;;17.05;11.02;;;15.10;92.90;;;;;;6241426;22;88457;-78
2023/05/16 13:34:49;;;;;;;17.70;11.02;;;15.10;92.50;;;;;;6241296;22;87800;-78
2023/05/16 13:37:18;;;;;;;16.10;10.35;;;15.10;92.70;;;;;;6245150;22;87607;-79
2023/05/16 13:39:44;;;;;;;17.75;12.02;;;15.20;92.20;;;;;;6220066;22;87610;-78
2023/05/16 13:42:10;;;;;;;17.90;10.77;;;15.10;92.80;;;;;;6245967;22;87655;-77
2023/05/16 13:44:35;;;;;;;19.98;11.55;;;15.10;93.10;;;;;;6245758;22;87216;-78
2023/05/16 13:47:02;;;;;;;21.02;11.43;;;15.10;93.40;;;;;;6245210;22;87632;-77
2023/05/16 13:49:28;;;;;;;18.10;12.48;;;15.00;93.70;;;;;;6243989;22;87323;-80
2023/05/16 13:51:54;;;;;;;16.75;10.45;;;15.00;93.60;;;;;;6247236;22;89669;-78
2023/05/16 13:54:23;;;;;;;18.95;9.65;;;15.00;93.50;;;;;;6245653;22;88941;-79
2023/05/16 13:56:49;;;;;;;19.27;11.30;;;15.10;93.80;;;;;;6248018;22;87386;-79
2023/05/16 13:59:15;;;;;;;16.42;9.27;;;15.10;93.40;;;;;;6246488;22;87390;-78
2023/05/16 14:01:40;;;;;;;12.73;8.15;;;15.10;92.80;;;;;;6247385;22;88948;-78
2023/05/16 14:04:06;;;;;;;14.70;8.90;;;15.00;92.50;;;;;;6244839;22;87408;-77
2023/05/16 14:06:32;;;;;;;14.70;9.27;;;15.10;92.90;;;;;;6247721;22;87633;-78
2023/05/16 14:08:57;;;;;;;14.88;9.10;;;15.00;92.90;;;;;;6248046;22;86683;-79
2023/05/16 14:11:26;;;;;;;17.17;9.05;;;14.90;93.00;;;;;;6240374;22;88197;-76
2023/05/16 14:13:52;;;;;;;13.43;8.88;;;15.00;93.20;;;;;;6245747;22;87263;-81
2023/05/16 14:16:18;;;;;;;15.65;9.63;;;15.00;93.20;;;;;;6246748;22;88182;-80
2023/05/16 14:18:43;;;;;;;15.65;8.93;;;14.90;93.30;;;;;;6248055;22;87025;-81
2023/05/16 14:21:09;;;;;;;14.90;10.15;;;15.00;93.50;;;;;;6248357;22;87502;-80
2023/05/16 14:23:35;;;;;;;16.02;8.35;;;15.00;93.70;;;;;;6245344;22;87445;-80
2023/05/16 14:26:01;;;;;;;12.65;8.25;;;15.00;93.40;;;;;;6247620;22;87518;-80
2023/05/16 14:28:27;;;;;;;10.65;7.03;;;15.00;93.20;;;;;;6248271;22;87311;-80
2023/05/16 14:30:53;;;;;;;12.73;6.55;;;15.10;93.00;;;;;;6247256;22;87484;-80
2023/05/16 14:33:19;;;;;;;9.57;5.57;;;15.00;93.00;;;;;;6246071;22;88218;-80
2023/05/16 14:35:45;;;;;;;11.20;5.10;;;15.00;92.70;;;;;;6246662;22;87217;-80
2023/05/16 14:38:10;;;;;;;7.97;4.40;;;15.00;92.60;;;;;;6248564;22;87303;-79
2023/05/16 14:40:36;;;;;;;8.25;4.63;;;14.90;92.00;;;;;;6247854;22;89260;-79
2023/05/16 14:43:04;;;;;;;9.05;5.47;;;14.70;92.10;;;;;;6220977;22;89235;-81
2023/05/16 14:45:30;;;;;;;9.10;4.60;;;14.70;92.60;;;;;;6247569;22;87509;-81
2023/05/16 14:47:55;;;;;;;7.03;4.63;;;14.70;93.10;;;;;;6248013;22;87415;-80
2023/05/16 14:50:21;;;;;;;6.25;4.40;;;14.60;93.00;;;;;;6248523;22;87929;-80
2023/05/16 14:52:47;;;;;;;6.47;4.20;;;14.60;92.90;;;;;;6246975;22;87952;-80
2023/05/16 14:55:12;;;;;;;8.85;4.35;;;14.60;93.00;;;;;;6248487;22;88273;-80
2023/05/16 14:57:38;;;;;;;8.25;4.35;;;14.70;92.90;;;;;;6248348;22;86510;-80
2023/05/16 15:00:06;;;;;;;8.85;4.47;;;14.60;93.10;;;;;;6248105;22;87511;-80
2023/05/16 15:02:31;;;;;;;8.13;5.03;;;14.60;93.20;;;;;;6247768;22;87340;-80
2023/05/16 15:04:57;;;;;;;9.48;4.90;;;14.70;93.40;;;;;;6245437;22;88625;-80
2023/05/16 15:07:24;;;;;;;6.93;4.43;;;14.60;93.30;;;;;;6247380;22;87326;-80
2023/05/16 15:09:49;;;;;;;7.80;5.03;;;14.60;93.30;;;;;;6244134;22;87557;-80
2023/05/16 15:12:15;;;;;;;9.20;6.15;;;14.60;93.60;;;;;;6246592;22;87638;-80
2023/05/16 15:14:41;;;;;;;9.90;6.05;;;14.60;93.50;;;;;;6248631;22;87277;-80
2023/05/16 15:17:07;;;;;;;9.77;6.15;;;14.50;93.80;;;;;;6247237;22;87385;-80
2023/05/16 15:19:33;;;;;;;10.40;6.80;;;14.50;94.00;;;;;;6247275;22;87070;-80
2023/05/16 15:21:58;;;;;;;8.43;4.75;;;14.60;94.30;;;;;;6245351;22;86728;-80
2023/05/16 15:24:24;;;;;;;9.52;5.90;;;14.50;93.80;;;;;;6216611;22;87559;-81
2023/05/16 15:26:50;;;;;;;10.38;6.00;;;14.60;94.10;;;;;;6245205;22;86945;-80
2023/05/16 15:29:18;;;;;;;9.88;5.75;;;14.40;93.40;;;;;;6243254;22;89516;-82
2023/05/16 15:31:44;;;;;;;10.90;6.85;;;14.40;92.80;;;;;;6242045;22;89394;-81
2023/05/16 15:34:10;;;;;;;11.07;6.03;;;14.40;92.40;;;;;;6244289;22;87478;-81
2023/05/16 15:36:36;;;;;;;10.70;5.72;;;14.40;92.60;;;;;;6245120;22;87540;-81
2023/05/16 15:39:02;;;;;;;10.70;6.20;;;14.40;92.60;;;;;;6242686;22;88774;-81
2023/05/16 15:41:28;;;;;;;11.15;5.80;;;14.50;92.50;;;;;;6245972;22;87492;-81
2023/05/16 15:43:54;;;;;;;12.18;6.60;;;14.50;92.70;;;;;;6243191;22;87341;-80
2023/05/16 15:46:20;;;;;;;11.88;6.95;;;14.60;93.10;;;;;;6244452;22;86608;-80
2023/05/16 15:48:45;;;;;;;10.18;6.80;;;14.60;93.30;;;;;;6244145;22;88333;-83
2023/05/16 15:51:12;;;;;;;11.50;6.78;;;14.60;93.60;;;;;;6245559;22;87618;-78
2023/05/16 15:53:38;;;;;;;14.15;8.65;;;14.60;93.50;;;;;;6246530;22;88533;-79
2023/05/16 15:56:05;;;;;;;13.35;7.45;;;14.60;93.90;;;;;;6248708;22;87168;-80